Portada
METAR-TAF:

METAR-TAF

Aeropuertos :

Aeropuerto Internacional de Recife

Recife, Pernambuco, Brasil

latitud: 08-08S, longitud: 034-55W, altitud: 19 m

Observación

El informe se hizo hace 26 minutos, a las 08:00 UTC
Viento 7 kt del este-sureste
Temperatura 26°C
Humedad 74%
Presión 1012 hPa
Visibilidad 10 km o más
Nubes dispersas a una altura de 2300 ft

METAR: SBRF 140800Z 12007KT 9999 SCT023 26/21 Q1012

Hora: 05:26 (08:26 UTC)

Pronóstico

El informe se hizo hace 4 horas y 26 minutos, a las 04:00 UTC
Pronóstico válido del 14 a las 06 UTC al 15 a las 06 UTC
Viento 10 kt del sureste
Visibilidad 10 km o más
Nubes dispersas a una altura de 2500 ft

TAF: SBRF 140400Z 1406/1506 13010KT 9999 SCT025 TN26/1406Z TX30/1414Z RMK PEH

Observaciones y pronósticos meteorológicos de más de 4000 aeropuertos (mensajes METAR y TAF).

Los puntos amarillos y rojos representan las estaciones disponibles.

Ponga el ratón en el punto deseado para ver el nombre de la estación.

Haga clic para ver las observaciones y los pronósticos meteorológicos.

Para cambiar el mapa : haga clic en los botones verdes con una cruz de color negro para hacer un zoom, en el botón verde con un guión para alejar o en las flechas verdes para mapas adyacentes.


METAR-TAF: